Terminal Aerodrome Forecast
Issued by NWS

Home | Current Version | Previous Version | Text Only | Print | Product List | Glossary On
Versions: 1 2 3 4 5 6 7 8 9 10 11 12 13 14 15 16 17 18
000
FTUS46 KHNX 311614 AAA
TAFMCE
TAF AMD
KMCE 311614Z 3116/0112 VRB03KT 1SM BR FEW006
      TEMPO 3116/3118 1/4SM FG OVC002
     FM312200 VRB03KT 4SM HZ SKC
     FM010600 00000KT 2SM BR SCT006
     FM011000 VRB03KT 1/2SM FG OVC002=

USA.gov is the U.S. government's official web portal to all federal, state and local government web resources and services.